Grand Canyon Caverns, Arizona
Current Conditions -  °F | °C
As of 4:51 PM on Friday 24 Oct 2014 (Local Time) from KIGM Reporting Station
Clear Clear  
Wind Chill: 81°   Ceiling: Unl
Heat Index: 81°   Visibility: 10mi
Dew Point: 34°   Wind: 10mph
Humidity: 18%   Direction: 230°SW
Pressure: 30.09"   Gusts: NA
Location:  35.5603°N, 113.544°W
Report Text: KIGM 242351Z AUTO 23009KT 10SM CLR 27/01 A3009 RMK AO2 SLP129 T02720011 10289 20261 57010
Loading
Personal Weather Stations






























Interactive Weather Map
Tropical Storm Tracking
New forecast layout! Learn more

10-Day Weather Forecast

Advertisements
Track Severe Weather on mobile